ADDS METAR Data INFO
IDs: Format: Raw Decoded Include TAF

Data at: 1305 UTC 11 Dec 2017

KRCV 111245Z AUTO 27009KT 10SM CLR M05/M23 A3051 RMK AO2 T10471229
KRCV 111225Z AUTO 28013KT 10SM CLR M05/M23 A3050 RMK AO2 T10471230
KRCV 111210Z AUTO 27009KT 10SM CLR M05/M23 A3050 RMK AO2 T10511232
KRCV 111145Z AUTO 28009KT 10SM CLR M05/M24 A3050 RMK AO2 T10551238
KRCV 111130Z AUTO 27009KT 10SM CLR M07/M24 A3050 RMK AO2 T10671238
KRCV 111110Z AUTO 27008KT 10SM CLR M05/M24 A3050 RMK AO2 T10481240
KRCV 111050Z AUTO 29006KT 10SM CLR M05/M23 A3051 RMK AO2 T10471234
KRCV 111030Z AUTO 00000KT 10SM CLR M04/M24 A3051 RMK AO2 T10411238
KRCV 111010Z AUTO 28016KT 10SM CLR M05/M24 A3048 RMK AO2 T10471241
KRCV 110950Z AUTO 27016G23KT 10SM CLR M04/M23 A3048 RMK AO2 T10371230
KRCV 110930Z AUTO 26011KT 10SM CLR M05/M23 A3050 RMK AO2 T10491233
KRCV 110910Z AUTO 25015KT 10SM CLR M04/M24 A3050 RMK AO2 T10421237
KRCV 110850Z AUTO 27015KT 10SM CLR M05/M23 A3051 RMK AO2 T10461235
KRCV 110830Z AUTO 26013KT 10SM CLR M06/M23 A3051 RMK AO2 T10581235
KRCV 110810Z AUTO 27013KT 10SM CLR M09/M24 A3052 RMK AO2 T10931243
KRCV 110750Z AUTO 25011KT 10SM CLR M09/M24 A3053 RMK AO2 T10911239
KRCV 110730Z AUTO 28008KT 10SM CLR M05/M23 A3053 RMK AO2 T10531230
KRCV 110710Z AUTO 31007KT 10SM CLR M05/M23 A3053 RMK AO2 T10531230
KRCV 110650Z AUTO 27012KT 10SM CLR M06/M22 A3052 RMK AO2 T10601224 400711089
KRCV 110630Z AUTO 26009KT 10SM CLR M07/M23 A3053 RMK AO2 T10731226
KRCV 110610Z AUTO 24007KT 10SM CLR M06/M22 A3053 RMK AO2 T10581225
KRCV 110550Z AUTO 26012KT 10SM CLR M06/M23 A3052 RMK AO2 T10651232 11005 21071
KRCV 110530Z AUTO 27011KT 10SM CLR M05/M22 A3052 RMK AO2 T10471219
KRCV 110510Z AUTO 27010KT 10SM CLR M07/M21 A3051 RMK AO2 T10701215
KRCV 110450Z AUTO 25007KT 10SM CLR M06/M22 A3051 RMK AO2 T10581220
KRCV 110430Z AUTO 27013KT 10SM CLR M05/M21 A3050 RMK AO2 T10491213
KRCV 110410Z AUTO 26012KT 10SM CLR M06/M22 A3050 RMK AO2 T10651220
KRCV 110350Z AUTO 27011KT 10SM CLR M07/M22 A3050 RMK AO2 T10661223
KRCV 110330Z AUTO 27007KT 10SM CLR M04/M22 A3051 RMK AO2 T10441219
KRCV 110310Z AUTO 27005KT 10SM CLR M06/M22 A3051 RMK AO2 T10581216
KRCV 110250Z AUTO 26011KT 10SM CLR M06/M22 A3051 RMK AO2 T10641222
KRCV 110230Z AUTO 26011KT 10SM CLR M04/M21 A3050 RMK AO2 T10441213
KRCV 110210Z AUTO 26011KT 10SM CLR M06/M22 A3050 RMK AO2 T10601224
KRCV 110150Z AUTO 26011KT 10SM CLR M05/M21 A3050 RMK AO2 T10481210
KRCV 110130Z AUTO 26009KT 10SM CLR M04/M21 A3050 RMK AO2 T10361215
KRCV 110110Z AUTO 25006KT 10SM CLR M04/M21 A3050 RMK AO2 T10391215
KRCV 110045Z AUTO 27005KT 10SM CLR M02/M21 A3049 RMK AO2 T10191212
KRCV 110030Z AUTO 01004KT 10SM CLR M02/M21 A3048 RMK AO2 T10171214
KRCV 110010Z AUTO 03004KT 10SM CLR M01/M21 A3048 RMK AO2 T10111211
KRCV 102350Z AUTO 03003KT 10SM CLR 00/M21 A3048 RMK AO2 T00001210 10071 20000
KRCV 102330Z AUTO 08003KT 10SM CLR 04/M19 A3048 RMK AO2 T00431195
KRCV 102310Z AUTO 10003KT 10SM CLR 06/M19 A3048 RMK AO2 T00581192
KRCV 102250Z AUTO 13003KT 10SM CLR 07/M19 A3047 RMK AO2 T00651192
KRCV 102230Z AUTO 11004KT 10SM CLR 07/M19 A3048 RMK AO2 T00701190
KRCV 102210Z AUTO 12004KT 10SM CLR 07/M19 A3048 RMK AO2 T00701191
KRCV 102150Z AUTO 00000KT 10SM CLR 07/M19 A3048 RMK AO2 T00711192
KRCV 102130Z AUTO 00000KT 10SM CLR 07/M19 A3048 RMK AO2 T00661193
KRCV 102110Z AUTO 09004KT 10SM CLR 07/M19 A3048 RMK AO2 T00661193
KRCV 102050Z AUTO 11003KT 10SM CLR 07/M19 A3049 RMK AO2 T00651194
KRCV 102030Z AUTO 08004KT 10SM CLR 06/M20 A3050 RMK AO2 T00631199
KRCV 102010Z AUTO 09004KT 10SM CLR 06/M20 A3050 RMK AO2 T00601198
KRCV 101950Z AUTO 05005KT 10SM CLR 06/M20 A3051 RMK AO2 T00591205
KRCV 101930Z AUTO 06003KT 10SM CLR 06/M21 A3052 RMK AO2 T00571207
KRCV 101910Z AUTO 11003KT 10SM CLR 05/M20 A3053 RMK AO2 T00541205
KRCV 101850Z AUTO 00000KT 10SM CLR 05/M21 A3054 RMK AO2 T00461212
KRCV 101830Z AUTO 08004KT 10SM CLR 04/M20 A3055 RMK AO2 T00431205
KRCV 101810Z AUTO 00000KT 10SM CLR 04/M21 A3056 RMK AO2 T00351209
KRCV 101750Z AUTO 14003KT 10SM CLR 03/M21 A3057 RMK AO2 T00311212 10031 21080
KRCV 101730Z AUTO 19003KT 10SM CLR 02/M22 A3058 RMK AO2 T00231217
KRCV 101710Z AUTO 25006KT 10SM CLR 02/M22 A3058 RMK AO2 T00151216
KRCV 101650Z AUTO 26008KT 10SM CLR 00/M21 A3058 RMK AO2 T00041211
KRCV 101630Z AUTO 25008KT 10SM CLR M01/M23 A3058 RMK AO2 T10061228
KRCV 101610Z AUTO 25014G18KT 10SM CLR M02/M23 A3057 RMK AO2 T10171227
KRCV 101550Z AUTO 26011KT 10SM CLR M02/M23 A3057 RMK AO2 T10221234
KRCV 101530Z AUTO 26009KT 10SM CLR M04/M23 A3057 RMK AO2 T10401229
KRCV 101510Z AUTO 26012KT 10SM CLR M05/M24 A3057 RMK AO2 T10471237
KRCV 101445Z AUTO 28013KT 10SM CLR M06/M24 A3057 RMK AO2 T10591240
KRCV 101430Z AUTO 27012KT 10SM CLR M06/M24 A3057 RMK AO2 T10651236
KRCV 101410Z AUTO 27008KT 10SM CLR M07/M25 A3057 RMK AO2 T10681246
KRCV 101350Z AUTO 26011KT 10SM CLR M07/M24 A3056 RMK AO2 T10671238
KRCV 101330Z AUTO 26010KT 10SM CLR M07/M24 A3055 RMK AO2 T10741245
KRCV 101310Z AUTO 27008KT 10SM CLR M06/M24 A3055 RMK AO2 T10611237
KRCV 101250Z AUTO 26014G17KT 10SM CLR M06/M24 A3054 RMK AO2 T10581238
KRCV 101230Z AUTO 27012KT 10SM CLR M06/M24 A3054 RMK AO2 T10571240
KRCV 101210Z AUTO 27011KT 10SM CLR M06/M24 A3054 RMK AO2 T10601237
KRCV 101150Z AUTO 27004KT 10SM CLR M08/M25 A3054 RMK AO2 T10831249 11033 21083
KRCV 101130Z AUTO 27010KT 10SM CLR M06/M24 A3054 RMK AO2 T10571240
KRCV 101110Z AUTO 27009KT 10SM CLR M05/M24 A3054 RMK AO2 T10531238
KRCV 101050Z AUTO 26008KT 10SM CLR M06/M24 A3055 RMK AO2 T10621242
KRCV 101030Z AUTO 28009KT 10SM CLR M05/M23 A3054 RMK AO2 T10471231
KRCV 101010Z AUTO 23005KT 10SM CLR M04/M23 A3054 RMK AO2 T10431230
KRCV 100950Z AUTO 28014KT 10SM CLR M04/M24 A3054 RMK AO2 T10371242
KRCV 100930Z AUTO 27012KT 10SM CLR M04/M24 A3053 RMK AO2 T10411243
KRCV 100910Z AUTO 27013KT 10SM CLR M04/M24 A3053 RMK AO2 T10401240
KRCV 100850Z AUTO 27012KT 10SM CLR M04/M24 A3053 RMK AO2 T10411238
KRCV 100830Z AUTO 27011KT 10SM CLR M04/M23 A3053 RMK AO2 T10411235
KRCV 100810Z AUTO 28012KT 10SM CLR M05/M24 A3053 RMK AO2 T10541237
KRCV 100750Z AUTO 26015KT 10SM CLR M04/M23 A3053 RMK AO2 T10411230
KRCV 100730Z AUTO 26014KT 10SM CLR M05/M23 A3053 RMK AO2 T10471230
KRCV 100710Z AUTO 25007KT 10SM CLR M06/M24 A3053 RMK AO2 T10561242
KRCV 100650Z AUTO 27008KT 10SM CLR M05/M24 A3053 RMK AO2 T10461237 400851084
KRCV 100630Z AUTO 25006KT 10SM CLR M07/M24 A3053 RMK AO2 T10751240
KRCV 100610Z AUTO 28008KT 10SM CLR M04/M23 A3053 RMK AO2 T10451230
KRCV 100550Z AUTO 27011KT 10SM CLR M03/M22 A3053 RMK AO2 T10311221 10020 21084
KRCV 100530Z AUTO 26014KT 10SM CLR M02/M22 A3052 RMK AO2 T10221221
KRCV 100510Z AUTO 26012KT 10SM CLR M05/M23 A3052 RMK AO2 T10511231
KRCV 100450Z AUTO 27013KT 10SM CLR M07/M22 A3052 RMK AO2 T10701220
KRCV 100430Z AUTO 27003KT 10SM CLR M07/M21 A3052 RMK AO2 T10691207
KRCV 100410Z AUTO 25009KT 10SM CLR M06/M21 A3051 RMK AO2 T10571215
KRCV 100350Z AUTO 27006KT 10SM CLR M06/M22 A3050 RMK AO2 T10561221
KRCV 100330Z AUTO 26005KT 10SM CLR M07/M21 A3050 RMK AO2 T10661215
KRCV 100310Z AUTO 24003KT 10SM CLR M06/M21 A3050 RMK AO2 T10651215
KRCV 100250Z AUTO 23007KT 10SM CLR M05/M21 A3050 RMK AO2 T10551207
KRCV 100230Z AUTO 27008KT 10SM CLR M04/M20 A3050 RMK AO2 T10451204
KRCV 100210Z AUTO 26009KT 10SM CLR M05/M20 A3050 RMK AO2 T10481201
KRCV 100150Z AUTO 26008KT 10SM CLR M04/M20 A3050 RMK AO2 T10381198
KRCV 100130Z AUTO 26010KT 10SM CLR M02/M19 A3048 RMK AO2 T10251189
KRCV 100110Z AUTO 27003KT 10SM CLR M03/M19 A3048 RMK AO2 T10301193